createdAt,value
2023-04-19T00:01:46.964Z,1.52
2023-04-19T00:04:15.422Z,1.75
2023-04-19T00:06:42.978Z,1.40
2023-04-19T00:09:10.007Z,1.20
2023-04-19T00:11:37.048Z,1.20
2023-04-19T00:14:04.309Z,1.60
2023-04-19T00:16:31.390Z,1.48
2023-04-19T00:18:58.435Z,1.33
2023-04-19T00:21:26.639Z,1.60
2023-04-19T00:23:54.232Z,1.80
2023-04-19T00:26:21.464Z,1.35
2023-04-19T00:28:51.893Z,1.35
2023-04-19T00:31:18.978Z,1.40
2023-04-19T00:33:46.056Z,1.92
2023-04-19T00:36:13.048Z,1.73
2023-04-19T00:38:40.898Z,1.73
2023-04-19T00:41:10.405Z,1.60
2023-04-19T00:43:37.438Z,1.42
2023-04-19T00:46:05.123Z,1.38
2023-04-19T00:48:32.454Z,1.60
2023-04-19T00:50:59.656Z,1.30
2023-04-19T00:53:26.718Z,1.77
2023-04-19T00:55:56.973Z,1.42
2023-04-19T00:58:25.448Z,1.55
2023-04-19T01:00:52.747Z,1.40
2023-04-19T01:03:20.750Z,1.70
2023-04-19T01:05:48.954Z,1.70
2023-04-19T01:08:16.039Z,1.33
2023-04-19T01:10:43.118Z,1.52
2023-04-19T01:13:10.142Z,1.65
2023-04-19T01:15:38.185Z,1.55
2023-04-19T01:18:05.583Z,1.55
2023-04-19T01:20:32.736Z,1.30
2023-04-19T01:23:00.054Z,1.60
2023-04-19T01:25:27.737Z,1.50
2023-04-19T01:27:54.784Z,1.30
2023-04-19T01:30:24.134Z,1.85
2023-04-19T01:32:51.251Z,1.50
2023-04-19T01:35:18.326Z,1.92
2023-04-19T01:37:45.487Z,1.52
2023-04-19T01:40:12.906Z,1.33
2023-04-19T01:42:39.922Z,1.50
2023-04-19T01:45:07.361Z,1.85
2023-04-19T01:47:34.484Z,1.48
2023-04-19T01:50:02.658Z,1.50
2023-04-19T01:52:29.682Z,1.27
2023-04-19T01:54:56.688Z,1.40
2023-04-19T01:57:23.710Z,1.33
2023-04-19T01:59:51.568Z,1.63
2023-04-19T02:02:18.720Z,1.58
2023-04-19T02:04:46.053Z,1.48
2023-04-19T02:07:13.131Z,1.55
2023-04-19T02:09:40.265Z,1.40
2023-04-19T02:12:07.589Z,1.33
2023-04-19T02:14:35.726Z,1.42
2023-04-19T02:17:03.018Z,1.70
2023-04-19T02:19:30.043Z,1.77
2023-04-19T02:21:59.742Z,1.92
2023-04-19T02:24:26.806Z,1.40
2023-04-19T02:26:53.820Z,1.42
2023-04-19T02:29:21.107Z,1.80
2023-04-19T02:31:48.668Z,1.77
2023-04-19T02:34:15.824Z,1.52
2023-04-19T02:36:43.186Z,1.08
2023-04-19T02:39:10.418Z,1.20
2023-04-19T02:41:39.009Z,1.48
2023-04-19T02:44:06.109Z,1.05
2023-04-19T02:46:34.771Z,1.33
2023-04-19T02:49:02.333Z,1.50
2023-04-19T02:51:30.878Z,1.20
2023-04-19T02:53:58.179Z,1.00
2023-04-19T02:56:25.505Z,1.42
2023-04-19T02:58:54.827Z,1.33
2023-04-19T03:01:22.025Z,1.00
2023-04-19T03:03:49.223Z,1.52
2023-04-19T03:06:17.057Z,1.30
2023-04-19T03:08:44.108Z,1.60
2023-04-19T03:11:12.810Z,1.20
2023-04-19T03:13:40.849Z,1.52
2023-04-19T03:16:08.914Z,1.13
2023-04-19T03:18:36.949Z,1.25
2023-04-19T03:21:05.020Z,1.08
2023-04-19T03:23:40.223Z,1.45
2023-04-19T03:26:07.541Z,1.25
2023-04-19T03:28:47.157Z,1.58
2023-04-19T03:31:21.160Z,1.63
2023-04-19T03:33:51.052Z,1.13
2023-04-19T03:36:20.233Z,1.55
2023-04-19T03:38:47.594Z,1.40
2023-04-19T03:41:26.328Z,1.73
2023-04-19T03:44:10.436Z,1.63
2023-04-19T03:46:41.805Z,1.65
2023-04-19T03:49:09.458Z,1.60
2023-04-19T03:51:36.836Z,1.45
2023-04-19T03:54:04.178Z,1.60
2023-04-19T03:56:31.310Z,1.40
2023-04-19T03:58:58.516Z,2.00
2023-04-19T04:01:26.837Z,1.50
2023-04-19T04:03:55.802Z,1.48
2023-04-19T04:06:23.280Z,1.58
2023-04-19T04:08:50.531Z,1.30
2023-04-19T04:11:17.621Z,1.85
2023-04-19T04:13:48.961Z,1.50
2023-04-19T04:16:19.511Z,1.80
2023-04-19T04:18:47.772Z,1.70
2023-04-19T04:21:15.682Z,2.08
2023-04-19T04:23:47.290Z,2.33
2023-04-19T04:26:25.380Z,5.90
2023-04-19T04:29:08.809Z,2.55
2023-04-19T04:31:37.297Z,2.60
2023-04-19T04:34:04.553Z,1.25
2023-04-19T04:36:36.619Z,1.75
2023-04-19T04:39:06.428Z,1.70
2023-04-19T04:41:33.480Z,1.55
2023-04-19T04:46:31.761Z,1.50
2023-04-19T04:48:58.833Z,2.13
2023-04-19T04:51:26.447Z,1.65
2023-04-19T04:53:55.714Z,1.58
2023-04-19T04:56:23.917Z,2.20
2023-04-19T04:58:51.213Z,2.53
2023-04-19T05:01:27.260Z,2.40
2023-04-19T05:03:54.461Z,2.33
2023-04-19T05:06:21.679Z,2.40
2023-04-19T05:08:48.731Z,2.80
2023-04-19T05:13:59.078Z,2.42
2023-04-19T05:16:27.469Z,2.20
2023-04-19T05:18:55.535Z,2.40
2023-04-19T05:21:23.864Z,2.30
2023-04-19T05:23:53.705Z,2.28
2023-04-19T05:26:21.605Z,2.20
2023-04-19T05:28:50.725Z,2.47
2023-04-19T05:31:22.969Z,2.40
2023-04-19T05:34:08.411Z,2.15
2023-04-19T05:36:36.162Z,2.35
2023-04-19T05:39:03.409Z,2.28
2023-04-19T05:41:31.181Z,1.90
2023-04-19T05:43:58.183Z,2.22
2023-04-19T05:46:26.168Z,2.00
2023-04-19T05:48:53.642Z,2.03
2023-04-19T05:51:39.260Z,1.80
2023-04-19T05:54:12.782Z,2.60
2023-04-19T05:56:41.383Z,2.85
2023-04-19T05:59:08.686Z,2.38
2023-04-19T06:01:35.622Z,2.45
2023-04-19T06:04:03.141Z,2.33
2023-04-19T06:06:30.359Z,2.40
2023-04-19T06:08:57.457Z,2.60
2023-04-19T06:11:31.310Z,2.47
2023-04-19T06:13:58.799Z,3.10
2023-04-19T06:16:26.981Z,2.42
2023-04-19T06:18:54.554Z,2.53
2023-04-19T06:21:21.793Z,3.00
2023-04-19T06:23:48.741Z,3.08
2023-04-19T06:26:15.788Z,2.40
2023-04-19T06:28:44.117Z,2.53
2023-04-19T06:31:12.410Z,3.08
2023-04-19T06:33:39.495Z,2.40
2023-04-19T06:36:06.856Z,2.92
2023-04-19T06:38:33.859Z,2.95
2023-04-19T06:41:01.099Z,2.88
2023-04-19T06:43:28.091Z,2.72
2023-04-19T06:46:02.311Z,2.80
2023-04-19T06:48:29.366Z,2.50
2023-04-19T06:50:56.680Z,2.50
2023-04-19T06:53:23.928Z,2.63
2023-04-19T06:55:59.009Z,2.75
2023-04-19T06:58:26.444Z,2.70
2023-04-19T07:00:53.827Z,2.03
2023-04-19T07:03:21.794Z,1.95
2023-04-19T07:05:49.011Z,2.25
2023-04-19T07:08:16.433Z,2.08
2023-04-19T07:10:43.997Z,2.20
2023-04-19T07:13:11.633Z,3.00
2023-04-19T07:15:38.844Z,2.33
2023-04-19T07:18:06.006Z,2.25
2023-04-19T07:20:33.739Z,2.22
2023-04-19T07:23:00.918Z,2.05
2023-04-19T07:25:28.049Z,2.00
2023-04-19T07:27:55.666Z,2.25
2023-04-19T07:30:22.826Z,2.28
2023-04-19T07:32:51.917Z,2.05
2023-04-19T07:35:20.898Z,2.42
2023-04-19T07:37:48.082Z,2.10
2023-04-19T07:40:15.149Z,2.22
2023-04-19T07:42:43.651Z,2.28
2023-04-19T07:45:11.448Z,2.05
2023-04-19T07:47:38.546Z,2.10
2023-04-19T07:50:07.773Z,2.17
2023-04-19T07:52:34.814Z,2.13
2023-04-19T07:55:02.001Z,1.92
2023-04-19T07:57:29.073Z,1.63
2023-04-19T07:59:58.196Z,1.65
2023-04-19T08:02:28.703Z,1.88
2023-04-19T08:04:58.029Z,2.30
2023-04-19T08:07:26.238Z,2.60
2023-04-19T08:09:53.372Z,1.95
2023-04-19T08:15:03.882Z,1.55
2023-04-19T08:17:42.400Z,1.75
2023-04-19T08:20:11.804Z,1.60
2023-04-19T08:22:39.951Z,1.77
2023-04-19T08:25:08.056Z,1.65
2023-04-19T08:27:35.641Z,3.35
2023-04-19T08:30:03.572Z,1.90
2023-04-19T08:32:30.652Z,2.50
2023-04-19T08:34:57.771Z,2.05
2023-04-19T08:37:25.550Z,1.63
2023-04-19T08:39:52.590Z,2.08
2023-04-19T08:42:33.255Z,1.80
2023-04-19T08:50:23.926Z,1.00
2023-04-19T08:53:05.195Z,0.85
2023-04-19T08:56:04.312Z,0.85
2023-04-19T09:01:12.807Z,1.48
2023-04-19T09:04:01.238Z,1.20
2023-04-19T09:06:41.274Z,0.82
2023-04-19T09:11:57.472Z,1.10
2023-04-19T09:14:27.178Z,1.08
2023-04-19T09:16:54.450Z,1.30
2023-04-19T09:19:25.259Z,1.05
2023-04-19T09:21:54.706Z,1.00
2023-04-19T09:27:12.335Z,1.27
2023-04-19T09:29:39.786Z,1.27
2023-04-19T09:32:06.904Z,1.00
2023-04-19T09:34:33.939Z,0.93
2023-04-19T09:37:24.979Z,1.35
2023-04-19T09:40:00.322Z,1.10
2023-04-19T09:48:10.010Z,1.50
2023-04-19T09:50:58.319Z,1.10
2023-04-19T09:53:29.932Z,1.17
2023-04-19T09:56:02.050Z,1.40
2023-04-19T09:58:38.259Z,1.70
2023-04-19T10:01:16.736Z,2.00
2023-04-19T10:03:50.360Z,2.22
2023-04-19T10:08:51.440Z,2.30
2023-04-19T10:11:22.126Z,1.92
2023-04-19T10:13:53.880Z,2.13
2023-04-19T10:16:21.158Z,2.47
2023-04-19T10:18:50.735Z,2.40
2023-04-19T10:21:19.434Z,2.53
2023-04-19T10:23:47.251Z,2.35
2023-04-19T10:26:14.379Z,2.08
2023-04-19T10:28:42.662Z,1.75
2023-04-19T10:31:13.279Z,1.50
2023-04-19T10:33:41.217Z,1.20
2023-04-19T10:36:14.697Z,1.63
2023-04-19T10:38:44.777Z,1.52
2023-04-19T10:41:14.694Z,1.35
2023-04-19T10:43:57.786Z,1.25
2023-04-19T10:46:26.152Z,1.42
2023-04-19T10:49:00.943Z,1.10
2023-04-19T10:51:44.459Z,1.42
2023-04-19T10:54:31.493Z,1.95
2023-04-19T10:57:05.941Z,1.25
2023-04-19T10:59:44.413Z,1.67
2023-04-19T11:02:25.075Z,1.30
2023-04-19T11:04:52.305Z,1.50
2023-04-19T11:07:21.359Z,1.33
2023-04-19T11:09:49.909Z,1.48
2023-04-19T11:12:21.720Z,1.17
2023-04-19T11:14:59.786Z,1.35
2023-04-19T11:17:32.279Z,1.80
2023-04-19T11:20:07.090Z,1.52
2023-04-19T11:22:36.364Z,1.23
2023-04-19T11:25:09.493Z,1.67
2023-04-19T11:27:36.696Z,1.90
2023-04-19T11:30:09.308Z,2.03
2023-04-19T11:32:37.091Z,2.53
2023-04-19T11:35:08.940Z,2.40
2023-04-19T11:37:37.134Z,1.90
2023-04-19T11:40:06.543Z,1.80
2023-04-19T11:42:34.261Z,2.40
2023-04-19T11:45:01.821Z,5.05
2023-04-19T11:47:29.030Z,5.47
2023-04-19T11:49:58.946Z,5.38
2023-04-19T11:52:26.855Z,4.93
2023-04-19T11:54:54.440Z,4.93
2023-04-19T11:57:31.402Z,5.00
2023-04-19T12:00:12.451Z,4.97
2023-04-19T12:02:41.167Z,5.53
2023-04-19T12:05:10.433Z,5.55
2023-04-19T12:07:37.662Z,4.65
2023-04-19T12:10:14.254Z,5.38
2023-04-19T12:12:41.359Z,5.15
2023-04-19T12:15:09.081Z,4.63
2023-04-19T12:17:59.729Z,5.13
2023-04-19T12:20:38.036Z,4.40
2023-04-19T12:23:05.260Z,4.45
2023-04-19T12:25:34.160Z,4.93
2023-04-19T12:28:02.932Z,6.82
2023-04-19T12:30:30.665Z,7.00
2023-04-19T12:32:59.469Z,6.22
2023-04-19T12:35:30.111Z,6.95
2023-04-19T12:37:59.434Z,6.65
2023-04-19T12:40:27.520Z,6.20
2023-04-19T12:42:54.926Z,6.25
2023-04-19T12:45:22.111Z,5.80
2023-04-19T12:47:49.273Z,5.53
2023-04-19T12:50:16.729Z,6.35
2023-04-19T12:52:45.060Z,6.20
2023-04-19T12:55:12.192Z,7.70
2023-04-19T12:57:39.366Z,7.05
2023-04-19T13:00:07.513Z,6.93
2023-04-19T13:02:35.291Z,6.57
2023-04-19T13:05:05.174Z,7.10
2023-04-19T13:07:32.407Z,7.60
2023-04-19T13:09:59.865Z,6.50
2023-04-19T13:12:26.976Z,6.45
2023-04-19T13:14:53.959Z,6.50
2023-04-19T13:17:21.554Z,6.45
2023-04-19T13:19:48.555Z,5.68
2023-04-19T13:22:15.770Z,5.43
2023-04-19T13:24:42.725Z,6.05
2023-04-19T13:27:10.032Z,5.00
2023-04-19T13:29:37.762Z,4.90
2023-04-19T13:32:07.680Z,6.20
2023-04-19T13:34:35.757Z,5.63
2023-04-19T13:37:02.765Z,5.43
2023-04-19T13:39:29.752Z,5.20
2023-04-19T13:41:56.899Z,6.57
2023-04-19T13:44:25.361Z,5.20
2023-04-19T13:46:52.533Z,5.55
2023-04-19T13:49:19.661Z,5.90
2023-04-19T13:51:50.653Z,7.15
2023-04-19T13:54:19.459Z,5.45
2023-04-19T13:56:49.824Z,4.97
2023-04-19T13:59:18.569Z,3.88
2023-04-19T14:01:45.602Z,8.20
2023-04-19T14:04:12.889Z,5.85
2023-04-19T14:06:40.341Z,5.10
2023-04-19T14:09:07.382Z,10.20
2023-04-19T14:11:34.683Z,3.92
2023-04-19T14:14:07.711Z,4.00
2023-04-19T14:16:34.813Z,4.18
2023-04-19T14:19:02.054Z,4.38
2023-04-19T14:21:30.146Z,4.05
2023-04-19T14:23:57.242Z,3.50
2023-04-19T14:26:26.317Z,4.68
2023-04-19T14:28:54.589Z,3.97
2023-04-19T14:31:21.681Z,8.02
2023-04-19T14:33:48.747Z,6.97
2023-04-19T14:36:15.955Z,8.07
2023-04-19T14:38:42.941Z,8.00
2023-04-19T14:41:09.970Z,7.03
2023-04-19T14:43:37.010Z,7.05
2023-04-19T14:46:04.058Z,10.48
2023-04-19T14:48:31.285Z,8.50
2023-04-19T14:50:58.417Z,7.65
2023-04-19T14:53:25.587Z,8.40
2023-04-19T14:55:52.569Z,8.07
2023-04-19T14:58:19.630Z,7.82
2023-04-19T15:00:46.748Z,8.40
2023-04-19T15:03:13.854Z,8.77
2023-04-19T15:05:41.175Z,8.32
2023-04-19T15:08:17.383Z,6.53
2023-04-19T15:10:54.080Z,6.55
2023-04-19T15:13:21.287Z,6.53
2023-04-19T15:15:48.570Z,7.05
2023-04-19T15:18:16.231Z,7.32
2023-04-19T15:20:43.217Z,6.75
2023-04-19T15:23:10.312Z,7.80
2023-04-19T15:25:37.388Z,7.70
2023-04-19T15:28:04.658Z,7.75
2023-04-19T15:30:31.681Z,7.30
2023-04-19T15:32:58.633Z,5.70
2023-04-19T15:35:25.883Z,6.20
2023-04-19T15:37:52.896Z,6.32
2023-04-19T15:40:19.931Z,4.90
2023-04-19T15:42:46.947Z,4.50
2023-04-19T15:45:14.105Z,4.32
2023-04-19T15:47:41.145Z,4.20
2023-04-19T15:50:08.768Z,4.47
2023-04-19T15:52:36.692Z,5.57
2023-04-19T15:55:03.903Z,4.80
2023-04-19T15:57:30.915Z,4.57
2023-04-19T15:59:57.925Z,4.30
2023-04-19T16:02:25.175Z,6.13
2023-04-19T16:04:52.453Z,8.52
2023-04-19T16:07:19.524Z,6.75
2023-04-19T16:09:46.497Z,8.23
2023-04-19T16:12:13.488Z,8.07
2023-04-19T16:14:40.516Z,6.22
2023-04-19T16:17:07.740Z,5.78
2023-04-19T16:19:35.719Z,5.47
2023-04-19T16:22:05.372Z,5.78
2023-04-19T16:24:32.438Z,4.90
2023-04-19T16:26:59.428Z,6.35
2023-04-19T16:29:26.757Z,3.63
2023-04-19T16:31:53.814Z,3.35
2023-04-19T16:34:21.351Z,3.53
2023-04-19T16:36:48.336Z,3.72
2023-04-19T16:39:15.981Z,4.13
2023-04-19T16:41:43.966Z,3.92
2023-04-19T16:44:11.773Z,4.78
2023-04-19T16:46:38.870Z,2.90
2023-04-19T16:49:06.214Z,3.70
2023-04-19T16:51:33.578Z,5.38
2023-04-19T16:54:01.012Z,5.10
2023-04-19T16:56:28.053Z,5.47
2023-04-19T16:58:56.570Z,6.50
2023-04-19T17:01:25.137Z,10.65
2023-04-19T17:03:52.612Z,12.80
2023-04-19T17:06:19.839Z,8.63
2023-04-19T17:08:47.021Z,7.78
2023-04-19T17:11:14.069Z,7.55
2023-04-19T17:13:41.358Z,7.10
2023-04-19T17:16:11.739Z,8.55
2023-04-19T17:18:39.737Z,13.43
2023-04-19T17:21:07.117Z,12.75
2023-04-19T17:23:34.178Z,13.00
2023-04-19T17:26:04.378Z,11.63
2023-04-19T17:28:31.751Z,8.70
2023-04-19T17:30:59.164Z,8.75
2023-04-19T17:33:26.293Z,12.18
2023-04-19T17:35:53.494Z,12.43
2023-04-19T17:38:21.946Z,11.65
2023-04-19T17:40:49.076Z,14.52
2023-04-19T17:43:16.778Z,14.55
2023-04-19T17:45:43.924Z,15.20
2023-04-19T17:48:11.668Z,17.95
2023-04-19T17:50:39.138Z,16.98
2023-04-19T17:53:07.052Z,18.48
2023-04-19T17:55:34.897Z,18.73
2023-04-19T17:58:03.865Z,18.05
2023-04-19T18:00:32.255Z,22.63
2023-04-19T18:03:00.198Z,20.92
2023-04-19T18:05:28.144Z,22.60
2023-04-19T18:07:56.695Z,21.42
2023-04-19T18:10:43.980Z,20.25
2023-04-19T18:13:11.592Z,22.65
2023-04-19T18:15:39.829Z,22.08
2023-04-19T18:18:07.571Z,21.08
2023-04-19T18:20:38.213Z,21.63
2023-04-19T18:23:06.403Z,18.98
2023-04-19T18:25:37.071Z,19.38
2023-04-19T18:28:05.104Z,20.00
2023-04-19T18:30:34.296Z,18.65
2023-04-19T18:33:02.282Z,19.40
2023-04-19T18:35:30.635Z,18.00
2023-04-19T18:37:59.607Z,20.83
2023-04-19T18:40:28.003Z,29.35
2023-04-19T18:42:56.320Z,29.80
2023-04-19T18:45:24.401Z,31.52
2023-04-19T18:47:52.930Z,34.70
2023-04-19T18:50:21.781Z,35.88
2023-04-19T18:52:49.638Z,34.00
2023-04-19T18:55:19.365Z,30.80
2023-04-19T18:57:47.421Z,28.17
2023-04-19T19:00:16.296Z,30.33
2023-04-19T19:02:45.313Z,27.85
2023-04-19T19:05:16.649Z,37.53
2023-04-19T19:07:46.050Z,31.42
2023-04-19T19:10:19.063Z,34.20
2023-04-19T19:12:50.614Z,16.80
2023-04-19T19:15:19.099Z,17.15
2023-04-19T19:17:49.864Z,18.40
2023-04-19T19:20:19.822Z,19.63
2023-04-19T19:22:48.756Z,20.52
2023-04-19T19:25:17.030Z,20.17
2023-04-19T19:28:02.919Z,18.73
2023-04-19T19:30:35.250Z,19.45
2023-04-19T19:33:05.349Z,18.88
2023-04-19T19:35:34.822Z,19.15
2023-04-19T19:38:02.977Z,16.00
2023-04-19T19:40:32.679Z,14.43
2023-04-19T19:43:03.310Z,13.57
2023-04-19T19:45:33.181Z,14.93
2023-04-19T19:48:04.059Z,13.38
2023-04-19T19:53:03.152Z,13.38
2023-04-19T19:55:33.476Z,13.80
2023-04-19T19:58:32.740Z,14.65
2023-04-19T20:00:52.752Z,13.50
2023-04-19T20:03:35.323Z,12.63
2023-04-19T20:11:13.245Z,11.77
2023-04-19T20:13:41.293Z,11.80
2023-04-19T20:16:10.176Z,11.00
2023-04-19T20:18:38.546Z,10.90
2023-04-19T20:21:06.775Z,12.13
2023-04-19T20:23:40.570Z,11.98
2023-04-19T20:26:08.982Z,13.52
2023-04-19T20:28:36.916Z,13.10
2023-04-19T20:31:07.112Z,13.02
2023-04-19T20:33:34.505Z,13.25
2023-04-19T20:36:02.507Z,13.38
2023-04-19T20:38:30.457Z,13.68
2023-04-19T20:40:58.421Z,13.85
2023-04-19T20:43:27.651Z,12.07
2023-04-19T20:45:55.537Z,11.15
2023-04-19T20:48:23.210Z,12.20
2023-04-19T20:50:51.060Z,11.25
2023-04-19T20:53:18.263Z,10.73
2023-04-19T20:55:45.801Z,9.77
2023-04-19T20:58:13.422Z,9.18
2023-04-19T21:00:41.990Z,8.98
2023-04-19T21:03:09.244Z,7.75
2023-04-19T21:05:36.681Z,9.02
2023-04-19T21:08:03.845Z,8.77
2023-04-19T21:10:30.960Z,9.23
2023-04-19T21:12:57.999Z,8.02
2023-04-19T21:15:25.062Z,8.93
2023-04-19T21:17:52.156Z,9.38
2023-04-19T21:20:19.283Z,7.80
2023-04-19T21:22:47.290Z,8.88
2023-04-19T21:25:14.671Z,9.90
2023-04-19T21:27:42.306Z,8.68
2023-04-19T21:30:10.757Z,8.93
2023-04-19T21:32:37.795Z,9.77
2023-04-19T21:35:05.116Z,10.38
2023-04-19T21:37:32.390Z,12.10
2023-04-19T21:39:59.515Z,15.85
2023-04-19T21:42:26.529Z,16.67
2023-04-19T21:44:53.506Z,16.27
2023-04-19T21:47:20.889Z,19.05
2023-04-19T21:49:47.952Z,14.70
2023-04-19T21:52:15.071Z,16.48
2023-04-19T21:54:42.080Z,15.32
2023-04-19T21:57:09.195Z,15.02
2023-04-19T21:59:37.902Z,14.10
2023-04-19T22:02:05.108Z,13.10
2023-04-19T22:04:32.362Z,13.88
2023-04-19T22:07:02.959Z,11.65
2023-04-19T22:09:31.000Z,12.02
2023-04-19T22:11:58.124Z,11.35
2023-04-19T22:14:25.137Z,11.25
2023-04-19T22:16:53.903Z,11.18
2023-04-19T22:19:21.278Z,11.48
2023-04-19T22:21:48.482Z,11.35
2023-04-19T22:24:15.995Z,12.25
2023-04-19T22:26:43.455Z,11.63
2023-04-19T22:29:10.621Z,10.88
2023-04-19T22:31:37.672Z,11.95
2023-04-19T22:34:04.856Z,11.38
2023-04-19T22:36:31.937Z,11.35
2023-04-19T22:38:59.168Z,12.13
2023-04-19T22:41:26.212Z,12.43
2023-04-19T22:43:54.532Z,11.82
2023-04-19T22:46:21.624Z,11.73
2023-04-19T22:48:49.968Z,10.40
2023-04-19T22:51:20.243Z,11.27
2023-04-19T22:53:47.426Z,10.95
2023-04-19T22:56:14.502Z,10.82
2023-04-19T22:58:41.464Z,11.90
2023-04-19T23:01:08.594Z,11.40
2023-04-19T23:03:35.979Z,11.60
2023-04-19T23:06:03.793Z,11.13
2023-04-19T23:08:31.062Z,12.80
2023-04-19T23:10:58.208Z,11.43
2023-04-19T23:13:25.322Z,10.38
2023-04-19T23:15:52.910Z,11.45
2023-04-19T23:18:21.385Z,12.85
2023-04-19T23:20:48.471Z,13.90
2023-04-19T23:23:15.613Z,12.65
2023-04-19T23:25:42.746Z,10.70
2023-04-19T23:28:12.412Z,12.15
2023-04-19T23:30:39.616Z,12.18
2023-04-19T23:33:06.811Z,11.50
2023-04-19T23:35:33.877Z,11.10
2023-04-19T23:38:01.181Z,11.73
2023-04-19T23:40:28.306Z,11.18
2023-04-19T23:42:55.381Z,11.85
2023-04-19T23:45:22.584Z,11.98
2023-04-19T23:47:50.018Z,11.30
2023-04-19T23:50:17.061Z,11.13
2023-04-19T23:52:44.035Z,11.48
2023-04-19T23:55:11.137Z,11.40
2023-04-19T23:57:38.165Z,11.57
